Stampa

METAR LIMJ - Aeroporto di Genova Sestri GOA

Genova / Sestri, Italy (LIMJ) 44-25N 008-51E 3M

Jul 19, 2019 - 07:50 PM EDT / 2019.07.19 2350 UTC

Wind: from the NNE (020 degrees) at 6 MPH (5 KT):0

Visibility: greater than 7 mile(s):0

Temperature: 71 F (22 C)

Dew Point: 64 F (18 C)

Relative Humidity: 78%

Pressure (altimeter): 30.03 in. Hg (1017 hPa)

ob: LIMJ 192350Z 02005KT CAVOK 22/18 Q1017

cycle: 0

 Dati METAR in tempo reale | Fonte: NOAA

Valuta questo articolo

1 1 1 1 1 1 1 1 1 1 Valutazione 0.00 (0 Voti)

hits
740
Ritieni il contenuto di questa pagina incompleto, non attendibile oppure oggetto di altre problematiche? INVIA UNA SEGNALAZIONE Grazie!